Time;durP1;ratioP1;P1;durP2;ratioP2;P2;SDS_P1;SDS_P2;PMS_P1;PMS_P2;Temp;Humidity;BMP_temperature;BMP_pressure;BME280_temperature;BME280_humidity;BME280_pressure;Samples;Min_cycle;Max_cycle;Signal;HPM_P1;HPM_P2
2023/11/28 00:02:15;;;;;;;6.20;4.05;;;3.50;99.90;;;;;;5047874;28;20029;-50
2023/11/28 00:04:40;;;;;;;7.00;4.32;;;3.50;99.90;;;;;;5046143;28;20044;-36
2023/11/28 00:07:06;;;;;;;8.55;4.68;;;3.50;99.90;;;;;;5046848;28;20498;-36
2023/11/28 00:09:32;;;;;;;6.85;4.57;;;3.50;99.90;;;;;;5047863;28;20021;-36
2023/11/28 00:11:57;;;;;;;6.57;4.43;;;3.50;99.90;;;;;;5048316;28;20048;-37
2023/11/28 00:14:23;;;;;;;7.50;4.93;;;3.50;99.90;;;;;;5047528;28;20025;-37
2023/11/28 00:16:49;;;;;;;6.22;4.47;;;3.60;99.90;;;;;;5035987;28;20108;-38
2023/11/28 00:19:14;;;;;;;8.77;5.18;;;3.60;99.90;;;;;;5042140;28;20538;-38
2023/11/28 00:21:40;;;;;;;9.63;5.72;;;3.60;99.90;;;;;;5048021;28;20079;-37
2023/11/28 00:24:06;;;;;;;11.98;5.97;;;3.60;99.90;;;;;;5047961;28;20526;-38
2023/11/28 00:26:32;;;;;;;8.02;5.70;;;3.60;99.90;;;;;;5047811;28;20029;-37
2023/11/28 00:28:58;;;;;;;8.70;5.30;;;3.60;99.90;;;;;;5047676;28;20076;-37
2023/11/28 00:31:24;;;;;;;7.15;4.63;;;3.60;99.90;;;;;;5047732;28;20036;-48
2023/11/28 00:33:49;;;;;;;5.68;4.35;;;3.50;99.90;;;;;;5047690;28;20024;-50
2023/11/28 00:36:16;;;;;;;6.15;4.20;;;3.50;99.90;;;;;;5047737;28;20089;-48
2023/11/28 00:38:42;;;;;;;6.30;4.00;;;3.40;99.90;;;;;;5047808;28;20502;-49
2023/11/28 00:41:09;;;;;;;8.23;4.60;;;3.40;99.90;;;;;;5047379;28;20033;-50
2023/11/28 00:43:35;;;;;;;7.00;4.38;;;3.40;99.90;;;;;;5046225;28;20029;-50
2023/11/28 00:46:01;;;;;;;7.30;4.47;;;3.40;99.90;;;;;;5047728;28;20052;-53
2023/11/28 00:48:26;;;;;;;6.85;4.07;;;3.30;99.90;;;;;;5047074;28;20044;-52
2023/11/28 00:50:53;;;;;;;5.80;3.88;;;3.40;99.90;;;;;;5047774;28;20041;-51
2023/11/28 00:53:19;;;;;;;7.78;4.28;;;3.30;99.90;;;;;;5047400;28;20032;-49
2023/11/28 00:55:44;;;;;;;6.78;3.90;;;3.30;99.90;;;;;;5047466;28;20021;-51
2023/11/28 00:58:10;;;;;;;5.78;4.05;;;3.30;99.90;;;;;;5045161;28;20056;-42
2023/11/28 01:00:36;;;;;;;4.32;3.17;;;3.20;99.90;;;;;;5043640;28;20048;-53
2023/11/28 01:03:03;;;;;;;5.28;3.58;;;3.20;99.90;;;;;;5044936;28;20052;-52
2023/11/28 01:05:29;;;;;;;5.78;4.03;;;3.20;99.90;;;;;;5045754;28;20025;-50
2023/11/28 01:07:56;;;;;;;5.60;4.00;;;3.10;99.90;;;;;;5047220;28;20089;-51
2023/11/28 01:10:21;;;;;;;5.43;3.70;;;3.20;99.90;;;;;;5046420;28;20476;-47
2023/11/28 01:12:47;;;;;;;6.80;3.85;;;3.20;99.90;;;;;;5046881;28;20055;-49
2023/11/28 01:15:13;;;;;;;5.45;3.85;;;3.20;99.90;;;;;;5046940;28;20037;-49
2023/11/28 01:17:38;;;;;;;6.00;4.22;;;3.10;99.90;;;;;;5047082;28;20049;-52
2023/11/28 01:20:05;;;;;;;4.72;3.72;;;3.20;99.90;;;;;;5046103;28;20049;-52
2023/11/28 01:22:30;;;;;;;5.20;3.60;;;3.10;99.90;;;;;;5046843;28;20089;-51
2023/11/28 01:24:57;;;;;;;8.50;4.22;;;3.10;99.90;;;;;;5046488;28;20033;-52
2023/11/28 01:27:23;;;;;;;6.15;3.85;;;3.10;99.90;;;;;;5046296;28;20060;-53
2023/11/28 01:29:48;;;;;;;7.35;4.20;;;3.10;99.90;;;;;;5046787;28;20034;-49
2023/11/28 01:32:14;;;;;;;6.57;3.85;;;3.00;99.90;;;;;;5045951;28;20043;-53
2023/11/28 01:34:40;;;;;;;6.18;3.85;;;3.00;99.90;;;;;;5046071;28;20120;-55
2023/11/28 01:37:07;;;;;;;4.43;3.17;;;3.00;99.90;;;;;;5045130;28;20399;-53
2023/11/28 01:39:32;;;;;;;3.97;2.80;;;3.00;99.90;;;;;;5046422;28;20561;-54
2023/11/28 01:41:58;;;;;;;5.32;3.65;;;3.00;99.90;;;;;;5046610;28;20079;-54
2023/11/28 01:44:24;;;;;;;4.22;3.10;;;3.00;99.90;;;;;;5046257;28;20037;-52
2023/11/28 01:46:52;;;;;;;5.00;3.17;;;3.10;99.90;;;;;;5044797;28;20113;-53
2023/11/28 01:49:19;;;;;;;4.63;3.05;;;3.10;99.90;;;;;;5046660;28;20025;-54
2023/11/28 01:51:46;;;;;;;3.08;2.70;;;3.00;99.90;;;;;;5046398;28;20361;-57
2023/11/28 01:54:13;;;;;;;4.20;3.17;;;3.00;99.90;;;;;;5078428;28;20028;-53
2023/11/28 01:56:38;;;;;;;8.30;3.75;;;3.10;99.90;;;;;;5046156;28;20112;-53
2023/11/28 01:59:06;;;;;;;3.70;2.80;;;3.10;99.90;;;;;;5045505;28;20033;-56
2023/11/28 02:01:33;;;;;;;5.55;3.10;;;3.10;99.90;;;;;;5046190;28;20086;-53
2023/11/28 02:03:58;;;;;;;6.45;3.22;;;3.10;99.90;;;;;;5045725;28;20048;-49
2023/11/28 02:06:24;;;;;;;4.40;2.92;;;3.10;99.90;;;;;;5045093;28;20017;-53
2023/11/28 02:08:50;;;;;;;7.57;3.63;;;3.20;99.90;;;;;;5045327;28;20026;-53
2023/11/28 02:11:16;;;;;;;8.45;3.25;;;3.10;99.90;;;;;;5045595;28;20041;-50
2023/11/28 02:13:41;;;;;;;6.35;3.22;;;3.20;99.90;;;;;;5044975;28;20561;-52
2023/11/28 02:16:15;;;;;;;5.60;2.95;;;3.00;99.90;;;;;;5046073;28;20036;-48
2023/11/28 02:18:42;;;;;;;6.05;3.58;;;3.00;99.90;;;;;;5044209;28;20068;-53
2023/11/28 02:21:10;;;;;;;6.95;3.60;;;3.00;99.90;;;;;;5045918;28;20492;-54
2023/11/28 02:23:36;;;;;;;7.28;2.70;;;3.00;99.90;;;;;;5046042;28;20035;-54
2023/11/28 02:26:17;;;;;;;4.35;2.90;;;3.00;99.90;;;;;;5045250;28;20030;-54
2023/11/28 02:28:43;;;;;;;5.80;3.00;;;3.00;99.90;;;;;;5045258;28;20028;-54
2023/11/28 02:31:09;;;;;;;5.97;3.40;;;3.00;99.90;;;;;;5045553;28;20105;-55
2023/11/28 02:33:35;;;;;;;5.93;3.50;;;3.00;99.90;;;;;;5045138;28;20490;-52
2023/11/28 02:36:01;;;;;;;8.25;2.90;;;2.90;99.90;;;;;;5045848;28;20031;-54
2023/11/28 02:38:26;;;;;;;4.72;2.50;;;2.90;99.90;;;;;;5045906;28;20044;-54
2023/11/28 02:40:52;;;;;;;6.43;2.85;;;2.90;99.90;;;;;;5045430;28;20051;-53
2023/11/28 02:43:18;;;;;;;3.70;2.75;;;2.80;99.90;;;;;;5045218;28;20025;-52
2023/11/28 02:45:47;;;;;;;5.80;2.95;;;2.80;99.90;;;;;;5046460;28;20036;-53
2023/11/28 02:48:13;;;;;;;7.43;2.78;;;2.70;99.90;;;;;;5045653;28;20029;-52
2023/11/28 02:50:38;;;;;;;4.88;2.55;;;2.60;99.90;;;;;;5042328;28;20496;-54
2023/11/28 02:53:05;;;;;;;5.45;2.88;;;2.60;99.90;;;;;;5042817;28;20021;-51
2023/11/28 02:55:30;;;;;;;6.68;2.53;;;2.70;99.90;;;;;;5042859;28;20022;-51
2023/11/28 02:58:00;;;;;;;3.80;2.53;;;2.70;99.90;;;;;;5051913;28;20447;-49
2023/11/28 03:00:26;;;;;;;4.20;1.98;;;2.60;99.90;;;;;;5044447;28;20040;-51
2023/11/28 03:02:52;;;;;;;4.00;2.45;;;2.60;99.90;;;;;;5044097;28;20092;-51
2023/11/28 03:05:18;;;;;;;4.47;2.53;;;2.60;99.90;;;;;;5044946;28;20104;-54
2023/11/28 03:07:43;;;;;;;2.40;1.50;;;2.50;99.90;;;;;;5043383;28;20026;-53
2023/11/28 03:10:09;;;;;;;1.77;1.30;;;2.50;99.90;;;;;;5045390;28;20021;-50
2023/11/28 03:12:35;;;;;;;2.40;1.67;;;2.50;99.90;;;;;;5044867;28;20492;-51
2023/11/28 03:15:02;;;;;;;4.57;1.80;;;2.40;99.90;;;;;;5044572;28;20391;-51
2023/11/28 03:17:27;;;;;;;1.23;1.13;;;2.30;99.90;;;;;;5045112;28;20489;-53
2023/11/28 03:19:53;;;;;;;1.15;1.05;;;2.10;99.90;;;;;;5045132;28;20045;-54
2023/11/28 03:22:19;;;;;;;3.35;1.75;;;2.10;99.90;;;;;;5045594;28;20440;-54
2023/11/28 03:24:46;;;;;;;1.73;1.13;;;2.00;99.90;;;;;;5045525;28;20022;-54
2023/11/28 03:27:12;;;;;;;2.35;1.20;;;1.90;99.90;;;;;;5048933;28;20570;-54
2023/11/28 03:29:38;;;;;;;3.22;1.20;;;1.90;99.90;;;;;;5049033;28;20025;-53
2023/11/28 03:32:05;;;;;;;7.40;1.38;;;1.90;99.90;;;;;;5048785;28;20029;-52
2023/11/28 03:34:30;;;;;;;1.35;1.05;;;1.90;99.90;;;;;;5049010;28;20025;-54
2023/11/28 03:36:57;;;;;;;1.10;0.77;;;1.90;99.90;;;;;;5047728;28;20052;-53
2023/11/28 03:39:23;;;;;;;3.35;1.25;;;1.80;99.90;;;;;;5048584;28;20242;-48
2023/11/28 03:41:50;;;;;;;1.38;0.85;;;1.70;99.90;;;;;;5048567;28;20081;-53
2023/11/28 03:44:15;;;;;;;2.53;1.27;;;1.70;99.90;;;;;;5048884;28;20037;-53
2023/11/28 03:46:41;;;;;;;0.70;0.70;;;1.60;99.90;;;;;;5048828;28;20368;-52
2023/11/28 03:49:08;;;;;;;2.25;1.25;;;1.60;99.90;;;;;;5048541;28;20052;-48
2023/11/28 03:51:35;;;;;;;1.55;1.00;;;1.60;99.90;;;;;;5047115;28;20072;-51
2023/11/28 03:54:01;;;;;;;1.25;0.90;;;1.60;99.90;;;;;;5048408;28;20029;-41
2023/11/28 03:56:26;;;;;;;0.90;0.82;;;1.60;99.90;;;;;;5047643;28;20026;-42
2023/11/28 03:58:52;;;;;;;1.10;0.95;;;1.60;99.90;;;;;;5048159;28;20499;-40
2023/11/28 04:01:18;;;;;;;2.17;0.80;;;1.50;99.90;;;;;;5048505;28;20025;-49
2023/11/28 04:03:43;;;;;;;10.65;1.52;;;1.50;99.90;;;;;;5048489;28;20064;-49
2023/11/28 04:06:09;;;;;;;1.48;0.55;;;1.40;99.90;;;;;;5048367;28;20061;-53
2023/11/28 04:08:35;;;;;;;1.10;0.80;;;1.40;99.90;;;;;;5047529;28;20388;-56
2023/11/28 04:11:01;;;;;;;0.77;0.60;;;1.40;99.90;;;;;;5047974;28;20025;-51
2023/11/28 04:13:26;;;;;;;1.00;0.70;;;1.40;99.90;;;;;;5048325;28;20053;-52
2023/11/28 04:15:53;;;;;;;0.85;0.70;;;1.40;99.90;;;;;;5047442;28;20036;-51
2023/11/28 04:18:18;;;;;;;0.82;0.60;;;1.40;99.90;;;;;;5048190;28;20026;-52
2023/11/28 04:20:44;;;;;;;1.05;0.80;;;1.30;99.90;;;;;;5047532;28;20072;-50
2023/11/28 04:23:10;;;;;;;1.88;1.17;;;1.30;99.90;;;;;;5048269;28;20391;-45
2023/11/28 04:25:35;;;;;;;1.10;0.70;;;1.30;99.90;;;;;;5047036;28;20043;-53
2023/11/28 04:28:01;;;;;;;1.20;0.80;;;1.40;99.90;;;;;;5047786;28;20026;-53
2023/11/28 04:30:27;;;;;;;2.50;0.70;;;1.30;99.90;;;;;;5033961;28;20076;-40
2023/11/28 04:32:53;;;;;;;0.90;0.77;;;1.40;99.90;;;;;;5036125;28;20021;-40
2023/11/28 04:35:19;;;;;;;1.50;0.82;;;1.40;99.90;;;;;;5047235;28;20028;-39
2023/11/28 04:37:45;;;;;;;0.60;0.60;;;1.40;99.90;;;;;;5047624;28;20041;-41
2023/11/28 04:40:11;;;;;;;1.27;0.93;;;1.30;99.90;;;;;;5047490;28;20030;-41
2023/11/28 04:42:38;;;;;;;4.03;0.90;;;1.30;99.90;;;;;;5047737;28;20052;-40
2023/11/28 04:45:04;;;;;;;1.17;0.82;;;1.40;99.90;;;;;;5047511;28;20028;-40
2023/11/28 04:47:30;;;;;;;0.43;0.40;;;1.40;99.90;;;;;;5046375;28;20029;-43
2023/11/28 04:49:55;;;;;;;1.05;0.70;;;1.30;99.90;;;;;;5047487;28;20089;-51
2023/11/28 04:52:21;;;;;;;1.30;1.10;;;1.20;99.90;;;;;;5047696;28;20121;-44
2023/11/28 04:54:47;;;;;;;1.27;0.70;;;1.20;99.90;;;;;;5042581;28;20082;-41
2023/11/28 04:57:12;;;;;;;2.15;0.75;;;1.20;99.90;;;;;;5027803;28;20029;-40
2023/11/28 04:59:38;;;;;;;0.82;0.70;;;1.30;99.90;;;;;;5027577;28;20022;-42
2023/11/28 05:02:03;;;;;;;1.67;0.90;;;1.30;99.90;;;;;;5038936;28;20093;-41
2023/11/28 05:04:29;;;;;;;1.67;0.65;;;1.30;99.90;;;;;;5047029;28;20080;-40
2023/11/28 05:06:55;;;;;;;0.93;0.50;;;1.40;99.90;;;;;;5047067;28;20064;-47
2023/11/28 05:09:21;;;;;;;1.08;0.75;;;1.40;99.90;;;;;;5045665;28;20113;-44
2023/11/28 05:11:47;;;;;;;3.42;0.60;;;1.30;99.90;;;;;;5047328;28;20034;-41
2023/11/28 05:14:13;;;;;;;2.65;0.70;;;1.30;99.90;;;;;;5045123;28;20021;-43
2023/11/28 05:16:39;;;;;;;0.45;0.45;;;1.40;99.90;;;;;;5046760;28;20077;-54
2023/11/28 05:19:05;;;;;;;0.98;0.50;;;1.40;99.90;;;;;;5046958;28;20030;-50
2023/11/28 05:21:31;;;;;;;2.33;0.70;;;1.40;99.90;;;;;;5046874;28;20500;-52
2023/11/28 05:23:57;;;;;;;1.13;0.60;;;1.40;99.90;;;;;;5045386;28;20072;-51
2023/11/28 05:26:23;;;;;;;0.40;0.40;;;1.40;99.90;;;;;;5046214;28;20060;-53
2023/11/28 05:28:48;;;;;;;0.95;0.52;;;1.40;99.90;;;;;;5046786;28;20029;-53
2023/11/28 05:31:14;;;;;;;1.00;0.57;;;1.40;99.90;;;;;;5046833;28;20021;-54
2023/11/28 05:33:40;;;;;;;1.25;0.60;;;1.40;99.90;;;;;;5046478;28;20026;-53
2023/11/28 05:36:09;;;;;;;2.45;0.57;;;1.40;99.90;;;;;;5036420;28;20022;-52
2023/11/28 05:38:34;;;;;;;2.03;0.70;;;1.40;99.90;;;;;;5046461;28;20028;-54
2023/11/28 05:41:00;;;;;;;2.22;0.57;;;1.40;99.90;;;;;;5045616;28;20049;-53
2023/11/28 05:43:30;;;;;;;0.50;0.50;;;1.40;99.90;;;;;;5046294;28;20037;-55
2023/11/28 05:45:55;;;;;;;1.75;0.85;;;1.40;99.90;;;;;;5046570;28;20033;-53
2023/11/28 05:48:22;;;;;;;2.25;0.57;;;1.40;99.90;;;;;;5046421;28;20045;-53
2023/11/28 05:50:47;;;;;;;0.52;0.52;;;1.40;99.90;;;;;;5030713;28;20022;-58
2023/11/28 05:53:13;;;;;;;1.48;0.90;;;1.40;99.90;;;;;;5032720;28;20045;-52
2023/11/28 05:55:39;;;;;;;0.93;0.70;;;1.50;99.90;;;;;;5045645;28;20025;-52
2023/11/28 05:58:05;;;;;;;1.35;0.82;;;1.50;99.90;;;;;;5046228;28;20026;-53
2023/11/28 06:00:34;;;;;;;2.15;0.65;;;1.40;99.90;;;;;;5046158;28;20036;-54
2023/11/28 06:03:00;;;;;;;2.85;0.80;;;1.50;99.90;;;;;;5045574;28;20404;-52
2023/11/28 06:05:26;;;;;;;2.85;0.75;;;1.40;99.90;;;;;;5044968;28;20025;-67
2023/11/28 06:07:54;;;;;;;1.23;0.55;;;1.40;99.90;;;;;;5045863;28;20051;-54
2023/11/28 06:10:20;;;;;;;0.93;0.50;;;1.40;99.90;;;;;;5046056;28;20029;-53
2023/11/28 06:12:46;;;;;;;5.18;0.85;;;1.50;99.90;;;;;;5046143;28;20034;-53
2023/11/28 06:15:11;;;;;;;2.40;0.90;;;1.40;99.90;;;;;;5045741;28;20013;-53
2023/11/28 06:17:37;;;;;;;1.50;0.93;;;1.40;99.90;;;;;;5046192;28;20037;-54
2023/11/28 06:20:04;;;;;;;0.93;0.93;;;1.40;99.90;;;;;;5046000;28;20505;-52
2023/11/28 06:22:31;;;;;;;1.52;0.85;;;1.50;99.90;;;;;;5045883;28;20034;-51
2023/11/28 06:24:57;;;;;;;2.42;0.70;;;1.50;99.90;;;;;;5044321;28;20093;-51
2023/11/28 06:27:22;;;;;;;2.33;1.08;;;1.50;99.90;;;;;;5045885;28;20476;-54
2023/11/28 06:29:49;;;;;;;5.50;0.82;;;1.40;99.90;;;;;;5045972;28;20028;-55
2023/11/28 06:32:14;;;;;;;3.08;0.80;;;1.40;99.90;;;;;;5045279;28;20021;-55
2023/11/28 06:34:40;;;;;;;2.30;0.88;;;1.40;99.90;;;;;;5045575;28;20025;-68
2023/11/28 06:37:05;;;;;;;4.68;1.00;;;1.40;99.90;;;;;;5045561;28;20042;-53
2023/11/28 06:42:16;;;;;;;2.65;0.95;;;1.40;99.90;;;;;;5045654;28;20055;-51
2023/11/28 06:44:42;;;;;;;1.80;0.70;;;1.40;99.90;;;;;;5045625;28;20049;-54
2023/11/28 06:47:07;;;;;;;1.90;0.63;;;1.40;99.90;;;;;;5045689;28;20022;-51
2023/11/28 06:49:33;;;;;;;0.80;0.80;;;1.50;99.90;;;;;;5045284;28;20060;-53
2023/11/28 06:52:01;;;;;;;0.70;0.63;;;1.50;99.90;;;;;;5045667;28;20021;-50
2023/11/28 06:54:28;;;;;;;5.07;1.13;;;1.40;99.90;;;;;;5044294;28;20021;-52
2023/11/28 06:56:54;;;;;;;1.75;0.98;;;1.50;99.90;;;;;;5045623;28;20071;-54
2023/11/28 06:59:20;;;;;;;4.88;1.00;;;1.40;99.90;;;;;;5045349;28;20026;-51
2023/11/28 07:01:46;;;;;;;5.97;0.98;;;1.50;99.90;;;;;;5048137;28;20389;-52
2023/11/28 07:04:13;;;;;;;5.55;0.85;;;1.40;99.90;;;;;;5049202;28;20029;-54
2023/11/28 07:06:38;;;;;;;1.02;0.70;;;1.40;99.90;;;;;;5049132;28;20486;-40
2023/11/28 07:09:04;;;;;;;0.90;0.65;;;1.40;99.90;;;;;;5040167;28;20062;-47
2023/11/28 07:11:30;;;;;;;2.00;1.27;;;1.40;99.90;;;;;;5029542;28;20042;-43
2023/11/28 07:13:55;;;;;;;2.13;1.05;;;1.40;99.90;;;;;;5041881;28;20087;-48
2023/11/28 07:16:21;;;;;;;1.98;1.83;;;1.40;99.90;;;;;;5048423;28;20036;-42
2023/11/28 07:18:47;;;;;;;4.05;1.20;;;1.30;99.90;;;;;;5048864;28;20188;-53
2023/11/28 07:21:14;;;;;;;0.93;0.90;;;1.40;99.90;;;;;;5049134;28;20049;-54
2023/11/28 07:23:40;;;;;;;3.28;0.73;;;1.40;99.90;;;;;;5047334;28;20029;-57
2023/11/28 07:26:06;;;;;;;1.65;1.15;;;1.40;99.90;;;;;;5048513;28;20054;-52
2023/11/28 07:28:32;;;;;;;1.58;0.88;;;1.40;99.90;;;;;;5048985;28;20139;-53
2023/11/28 07:31:01;;;;;;;2.03;1.05;;;1.50;99.90;;;;;;5048468;28;20085;-50
2023/11/28 07:33:27;;;;;;;3.92;1.15;;;1.50;99.90;;;;;;5047687;28;20017;-52
2023/11/28 07:35:53;;;;;;;2.83;0.85;;;1.50;99.90;;;;;;5047514;28;20028;-54
2023/11/28 07:38:24;;;;;;;3.17;0.95;;;1.50;99.90;;;;;;5048761;28;20021;-54
2023/11/28 07:40:50;;;;;;;1.05;0.75;;;1.50;99.90;;;;;;5048882;28;20029;-52
2023/11/28 07:43:16;;;;;;;0.68;0.68;;;1.50;99.90;;;;;;5048961;28;20025;-50
2023/11/28 07:45:41;;;;;;;2.30;0.93;;;1.60;99.90;;;;;;5048279;28;20028;-53
2023/11/28 07:48:07;;;;;;;0.82;0.82;;;1.60;99.90;;;;;;5047184;28;20492;-54
2023/11/28 07:50:34;;;;;;;0.98;0.90;;;1.60;99.90;;;;;;5048455;28;20030;-53
2023/11/28 07:53:00;;;;;;;1.35;1.10;;;1.60;99.90;;;;;;5048480;28;20500;-51
2023/11/28 07:55:25;;;;;;;1.00;0.75;;;1.70;99.90;;;;;;5048307;28;20032;-51
2023/11/28 07:57:51;;;;;;;4.10;1.23;;;1.70;99.90;;;;;;5048393;28;20026;-54
2023/11/28 08:00:20;;;;;;;1.17;0.88;;;1.80;99.90;;;;;;5048503;28;20028;-54
2023/11/28 08:02:46;;;;;;;2.85;1.27;;;1.80;99.90;;;;;;5047074;28;20093;-54
2023/11/28 08:05:12;;;;;;;0.80;0.80;;;1.80;99.90;;;;;;5040884;28;20022;-52
2023/11/28 08:07:37;;;;;;;1.80;0.90;;;1.90;99.90;;;;;;5048342;28;20037;-53
2023/11/28 08:10:11;;;;;;;1.20;1.10;;;2.00;99.90;;;;;;5046959;28;20024;-54
2023/11/28 08:12:38;;;;;;;1.75;1.10;;;2.00;99.90;;;;;;5047842;28;20051;-60
2023/11/28 08:15:05;;;;;;;0.75;0.65;;;2.10;99.90;;;;;;5046815;28;20120;-53
2023/11/28 08:17:31;;;;;;;1.07;0.97;;;2.10;99.90;;;;;;5047844;28;20040;-50
2023/11/28 08:19:58;;;;;;;2.20;1.20;;;2.20;99.90;;;;;;5047885;28;20280;-50
2023/11/28 08:22:23;;;;;;;4.20;1.33;;;2.20;99.90;;;;;;5046141;28;20022;-51
2023/11/28 08:24:49;;;;;;;1.70;1.25;;;2.20;99.90;;;;;;5047246;28;20021;-59
2023/11/28 08:27:16;;;;;;;3.53;1.42;;;2.30;99.90;;;;;;5047063;28;20032;-53
2023/11/28 08:29:42;;;;;;;2.22;1.38;;;2.30;99.90;;;;;;5038242;28;20049;-42
2023/11/28 08:32:09;;;;;;;4.13;1.67;;;2.30;99.90;;;;;;5047550;28;20037;-42
2023/11/28 08:34:35;;;;;;;2.35;1.60;;;2.30;99.90;;;;;;5047998;28;20028;-45
2023/11/28 08:37:01;;;;;;;6.68;1.63;;;2.40;99.90;;;;;;5047500;28;20033;-41
2023/11/28 08:39:27;;;;;;;1.10;1.10;;;2.40;99.90;;;;;;5047496;28;20021;-41
2023/11/28 08:41:54;;;;;;;3.47;1.73;;;2.40;99.90;;;;;;5047692;28;20032;-44
2023/11/28 08:44:20;;;;;;;2.33;1.88;;;2.50;99.90;;;;;;5047407;28;20081;-47
2023/11/28 08:46:46;;;;;;;1.85;0.98;;;2.50;99.90;;;;;;5039477;28;20045;-45
2023/11/28 08:49:11;;;;;;;1.48;1.20;;;2.50;99.90;;;;;;5046677;28;20127;-43
2023/11/28 08:51:37;;;;;;;10.05;1.10;;;2.50;99.90;;;;;;5047160;28;20033;-42
2023/11/28 08:54:03;;;;;;;1.98;1.33;;;2.60;99.90;;;;;;5045829;28;20076;-42
2023/11/28 08:56:29;;;;;;;2.50;1.92;;;2.60;99.90;;;;;;5046383;28;20025;-55
2023/11/28 08:58:54;;;;;;;1.98;1.48;;;2.70;99.90;;;;;;5046305;28;20096;-40
2023/11/28 09:01:20;;;;;;;8.70;2.10;;;2.70;99.90;;;;;;5039746;28;20092;-40
2023/11/28 09:03:46;;;;;;;1.30;1.20;;;2.70;99.90;;;;;;5046478;28;20032;-40
2023/11/28 09:06:12;;;;;;;2.22;1.00;;;2.70;99.90;;;;;;5047431;28;20018;-40
2023/11/28 09:08:37;;;;;;;2.45;1.00;;;2.70;99.90;;;;;;5046723;28;20037;-41
2023/11/28 09:11:03;;;;;;;1.98;1.65;;;2.80;99.90;;;;;;5046771;28;20018;-47
2023/11/28 09:13:29;;;;;;;1.30;0.95;;;2.80;99.90;;;;;;5047040;28;20487;-40
2023/11/28 09:15:55;;;;;;;1.65;1.13;;;2.90;99.90;;;;;;5046790;28;20026;-51
2023/11/28 09:18:21;;;;;;;2.22;1.20;;;2.90;99.90;;;;;;5045975;28;20187;-42
2023/11/28 09:20:47;;;;;;;3.85;1.50;;;3.00;99.90;;;;;;5046691;28;20081;-45
2023/11/28 09:23:13;;;;;;;6.45;1.35;;;3.00;99.90;;;;;;5046193;28;20088;-40
2023/11/28 09:25:39;;;;;;;18.20;1.92;;;3.10;99.90;;;;;;5045515;28;20041;-42
2023/11/28 09:28:05;;;;;;;2.40;1.42;;;3.10;99.90;;;;;;5043721;28;20029;-45
2023/11/28 09:30:31;;;;;;;1.20;1.00;;;3.10;99.90;;;;;;5046064;28;20021;-41
2023/11/28 09:32:57;;;;;;;4.30;1.52;;;3.10;99.90;;;;;;5044657;28;20023;-42
2023/11/28 09:35:23;;;;;;;2.15;1.52;;;3.10;99.90;;;;;;5045471;28;20026;-41
2023/11/28 09:37:49;;;;;;;1.58;1.17;;;3.20;99.90;;;;;;5044923;28;20026;-48
2023/11/28 09:40:15;;;;;;;4.57;1.95;;;3.20;99.90;;;;;;5046531;28;20040;-45
2023/11/28 09:42:42;;;;;;;3.63;1.50;;;3.30;99.90;;;;;;5045961;28;20022;-40
2023/11/28 09:45:08;;;;;;;7.95;1.30;;;3.30;99.90;;;;;;5046135;28;20056;-42
2023/11/28 09:47:36;;;;;;;1.40;1.20;;;3.30;99.90;;;;;;5046486;28;20400;-41
2023/11/28 09:50:05;;;;;;;1.75;1.50;;;3.40;99.90;;;;;;5046418;28;20541;-54
2023/11/28 09:52:33;;;;;;;3.75;1.58;;;3.40;99.90;;;;;;5046016;28;20468;-50
2023/11/28 09:54:59;;;;;;;1.08;0.93;;;3.40;99.90;;;;;;5045898;28;20029;-51
2023/11/28 09:57:32;;;;;;;1.30;1.20;;;3.50;99.90;;;;;;5046477;28;20044;-54
2023/11/28 09:59:58;;;;;;;1.55;1.25;;;3.50;99.90;;;;;;5045873;28;20037;-50
2023/11/28 10:02:30;;;;;;;2.08;1.30;;;3.50;99.90;;;;;;5045642;28;20040;-53
2023/11/28 10:04:56;;;;;;;4.95;1.40;;;3.60;99.90;;;;;;5045915;28;20060;-55
2023/11/28 10:07:29;;;;;;;1.80;1.17;;;3.70;99.90;;;;;;5045325;28;20021;-55
2023/11/28 10:09:57;;;;;;;5.60;1.40;;;3.70;99.90;;;;;;5046280;28;20116;-53
2023/11/28 10:12:23;;;;;;;;;;;3.70;99.90;;;;;;5046517;28;20032;-54
2023/11/28 10:14:49;;;;;;;1.55;1.30;;;3.80;99.90;;;;;;5045680;28;19905;-51
2023/11/28 10:17:16;;;;;;;2.78;1.45;;;3.80;99.90;;;;;;5045730;28;20392;-54
2023/11/28 10:19:44;;;;;;;1.65;1.40;;;3.90;99.90;;;;;;5045271;28;20052;-54
2023/11/28 10:22:12;;;;;;;1.17;1.08;;;4.00;99.90;;;;;;5045584;28;20033;-55
2023/11/28 10:24:39;;;;;;;1.58;0.98;;;3.90;99.90;;;;;;5043343;28;20028;-54
2023/11/28 10:27:05;;;;;;;4.57;1.67;;;3.80;99.90;;;;;;5045165;28;20076;-52
2023/11/28 10:29:32;;;;;;;8.70;1.27;;;3.80;99.90;;;;;;5045584;28;20089;-54
2023/11/28 10:31:59;;;;;;;1.23;0.95;;;3.90;99.90;;;;;;5045624;28;20029;-52
2023/11/28 10:34:26;;;;;;;2.47;1.45;;;4.00;99.90;;;;;;5045083;28;20037;-53
2023/11/28 10:36:51;;;;;;;2.28;1.50;;;4.10;99.90;;;;;;5045275;28;20104;-51
2023/11/28 10:39:20;;;;;;;2.15;1.15;;;4.10;99.90;;;;;;5045736;28;20036;-54
2023/11/28 10:41:47;;;;;;;3.75;1.48;;;4.20;99.90;;;;;;5045451;28;20025;-50
2023/11/28 10:44:12;;;;;;;1.45;1.00;;;4.10;99.90;;;;;;5045495;28;20300;-43
2023/11/28 10:46:39;;;;;;;1.05;0.90;;;4.10;99.90;;;;;;5044434;28;20021;-41
2023/11/28 10:49:05;;;;;;;1.17;0.80;;;4.10;99.90;;;;;;5045710;28;20029;-41
2023/11/28 10:51:32;;;;;;;1.42;0.88;;;4.20;99.90;;;;;;5044008;28;20104;-44
2023/11/28 10:54:09;;;;;;;5.40;1.08;;;4.20;99.90;;;;;;5045698;28;20021;-45
2023/11/28 10:56:45;;;;;;;2.78;0.98;;;4.30;99.90;;;;;;5045276;28;20025;-53
2023/11/28 10:59:33;;;;;;;2.47;1.02;;;4.40;99.90;;;;;;5044892;28;20036;-55
2023/11/28 11:02:01;;;;;;;2.53;0.85;;;4.50;99.90;;;;;;5044801;28;20048;-52
2023/11/28 11:04:30;;;;;;;6.82;1.45;;;4.50;99.90;;;;;;5045573;28;20109;-52
2023/11/28 11:06:56;;;;;;;2.90;1.40;;;4.60;99.90;;;;;;5045050;28;20030;-54
2023/11/28 11:09:23;;;;;;;3.13;1.17;;;4.60;99.90;;;;;;5045091;28;20018;-52
2023/11/28 11:11:53;;;;;;;1.35;1.15;;;4.60;99.90;;;;;;5045212;28;20022;-51
2023/11/28 11:14:49;;;;;;;5.15;1.65;;;4.70;99.90;;;;;;5043348;28;20048;-52
2023/11/28 11:17:39;;;;;;;1.75;0.98;;;4.60;99.90;;;;;;5042090;28;20029;-54
2023/11/28 11:20:08;;;;;;;9.52;1.20;;;4.40;99.90;;;;;;5045208;28;20055;-53
2023/11/28 11:22:39;;;;;;;4.85;0.90;;;4.50;99.90;;;;;;5044485;28;20037;-56
2023/11/28 11:25:06;;;;;;;0.85;0.82;;;4.60;99.90;;;;;;5026464;28;20025;-52
2023/11/28 11:27:32;;;;;;;1.83;1.10;;;4.70;99.90;;;;;;5044165;28;20021;-52
2023/11/28 11:30:04;;;;;;;1.73;0.98;;;4.60;99.90;;;;;;5041515;28;20032;-53
2023/11/28 11:32:36;;;;;;;3.00;0.90;;;4.50;99.90;;;;;;5034704;28;20034;-54
2023/11/28 11:35:04;;;;;;;4.60;1.38;;;4.50;99.90;;;;;;5045054;28;20021;-54
2023/11/28 11:37:30;;;;;;;1.85;1.25;;;4.50;99.90;;;;;;5044053;28;20024;-42
2023/11/28 11:39:59;;;;;;;0.98;0.80;;;4.60;99.90;;;;;;5045213;28;20044;-41
2023/11/28 11:42:26;;;;;;;3.15;1.10;;;4.60;99.90;;;;;;5045256;28;20104;-48
2023/11/28 11:44:51;;;;;;;2.35;1.05;;;4.60;99.90;;;;;;5045646;28;20121;-41
2023/11/28 11:47:22;;;;;;;1.23;0.82;;;4.50;99.90;;;;;;5048214;28;20312;-39
2023/11/28 11:49:50;;;;;;;2.38;0.75;;;4.60;99.90;;;;;;5044193;28;20049;-41
2023/11/28 11:52:17;;;;;;;4.95;1.20;;;4.70;99.90;;;;;;5036306;28;20025;-41
2023/11/28 11:54:45;;;;;;;1.23;0.82;;;4.80;99.90;;;;;;5048561;28;20025;-41
2023/11/28 11:57:12;;;;;;;2.50;1.23;;;4.80;99.90;;;;;;5048204;28;20028;-41
2023/11/28 11:59:40;;;;;;;2.72;0.57;;;4.90;99.90;;;;;;5048459;28;20491;-46
2023/11/28 12:02:06;;;;;;;;;;;4.90;99.90;;;;;;5048262;28;20033;-59
2023/11/28 12:04:32;;;;;;;6.18;1.00;;;4.90;99.90;;;;;;5046736;28;20359;-41
2023/11/28 12:07:06;;;;;;;4.22;1.10;;;4.80;99.90;;;;;;5047390;28;20044;-44
2023/11/28 12:09:32;;;;;;;1.13;1.00;;;4.80;99.90;;;;;;5048461;22;20042;-85
2023/11/28 12:11:58;;;;;;;1.17;0.68;;;4.80;99.90;;;;;;5014022;28;20034;-84
2023/11/28 12:14:24;;;;;;;1.85;0.60;;;4.90;99.90;;;;;;5014179;28;20014;-85
2023/11/28 12:16:51;;;;;;;1.77;0.95;;;4.90;99.90;;;;;;5015523;28;20018;-85
2023/11/28 12:19:17;;;;;;;1.55;1.20;;;4.90;99.90;;;;;;5014565;28;20032;-85
2023/11/28 12:21:43;;;;;;;9.73;1.25;;;5.00;99.90;;;;;;5015757;28;20022;-84
2023/11/28 12:24:08;;;;;;;5.95;0.90;;;4.90;99.90;;;;;;5015863;28;20149;-85
2023/11/28 12:26:35;;;;;;;2.15;1.10;;;4.90;99.90;;;;;;5016036;28;20026;-85
2023/11/28 12:29:01;;;;;;;1.20;1.10;;;5.10;99.90;;;;;;5015535;28;20057;-85
2023/11/28 12:31:28;;;;;;;1.20;1.00;;;5.10;99.90;;;;;;5017430;28;20572;-86
2023/11/28 12:33:54;;;;;;;2.13;1.25;;;5.00;99.90;;;;;;5015579;28;20022;-86
2023/11/28 12:36:25;;;;;;;6.43;2.00;;;5.10;99.90;;;;;;5015446;28;20048;-85
2023/11/28 12:38:54;;;;;;;1.10;1.00;;;5.20;99.90;;;;;;5015787;28;20100;-85
2023/11/28 12:41:20;;;;;;;4.30;1.30;;;5.30;99.90;;;;;;5013850;28;20033;-84
2023/11/28 12:43:52;;;;;;;2.42;1.30;;;5.10;99.90;;;;;;5013476;28;20025;-84
2023/11/28 12:46:19;;;;;;;1.73;1.20;;;5.00;99.90;;;;;;5013845;28;20033;-84
2023/11/28 12:48:45;;;;;;;5.35;1.25;;;5.10;99.90;;;;;;5013827;28;20026;-84
2023/11/28 12:51:11;;;;;;;1.48;1.23;;;5.30;99.90;;;;;;5013333;28;20029;-85
2023/11/28 12:53:36;;;;;;;1.27;1.02;;;5.30;99.90;;;;;;5014558;28;20095;-84
2023/11/28 12:56:03;;;;;;;2.13;1.27;;;5.40;99.90;;;;;;5030429;28;20037;-81
2023/11/28 12:58:29;;;;;;;2.58;1.10;;;5.40;99.90;;;;;;5033870;28;20030;-81